createdAt,value
2023-05-22T00:00:18.326Z,21.95
2023-05-22T00:00:53.248Z,20.88
2023-05-22T00:01:26.798Z,21.77
2023-05-22T00:01:59.739Z,24.87
2023-05-22T00:02:33.325Z,22.80
2023-05-22T00:03:06.057Z,24.33
2023-05-22T00:03:39.105Z,21.98
2023-05-22T00:04:13.662Z,23.45
2023-05-22T00:04:47.092Z,21.50
2023-05-22T00:05:20.718Z,23.30
2023-05-22T00:05:53.494Z,21.52
2023-05-22T00:06:26.283Z,21.75
2023-05-22T00:06:58.802Z,20.92
2023-05-22T00:07:31.266Z,23.73
2023-05-22T00:08:05.090Z,21.33
2023-05-22T00:08:38.015Z,23.35
2023-05-22T00:09:10.388Z,22.55
2023-05-22T00:09:42.874Z,22.30
2023-05-22T00:10:15.652Z,21.35
2023-05-22T00:10:48.235Z,22.02
2023-05-22T00:11:21.290Z,23.45
2023-05-22T00:11:53.887Z,23.67
2023-05-22T00:12:26.194Z,24.20
2023-05-22T00:12:58.581Z,21.57
2023-05-22T00:13:31.957Z,24.20
2023-05-22T00:14:04.284Z,22.02
2023-05-22T00:14:36.802Z,23.75
2023-05-22T00:15:09.737Z,22.65
2023-05-22T00:15:42.039Z,21.23
2023-05-22T00:16:14.386Z,22.90
2023-05-22T00:16:48.609Z,23.70
2023-05-22T00:17:21.123Z,20.83
2023-05-22T00:17:54.498Z,22.15
2023-05-22T00:18:27.313Z,27.10
2023-05-22T00:19:01.267Z,23.20
2023-05-22T00:19:33.852Z,23.38
2023-05-22T00:20:11.219Z,24.83
2023-05-22T00:20:46.914Z,25.63
2023-05-22T00:21:20.145Z,23.42
2023-05-22T00:21:52.703Z,23.70
2023-05-22T00:22:25.026Z,22.35
2023-05-22T00:22:58.556Z,22.98
2023-05-22T00:23:31.010Z,24.13
2023-05-22T00:24:04.315Z,23.80
2023-05-22T00:24:36.679Z,22.98
2023-05-22T00:25:09.640Z,25.92
2023-05-22T00:25:42.311Z,23.60
2023-05-22T00:26:15.963Z,23.95
2023-05-22T00:26:49.413Z,23.50
2023-05-22T00:27:21.817Z,24.35
2023-05-22T00:27:54.365Z,23.23
2023-05-22T00:28:26.972Z,24.10
2023-05-22T00:28:59.324Z,24.67
2023-05-22T00:29:32.088Z,33.27
2023-05-22T00:30:04.777Z,34.80
2023-05-22T00:30:37.956Z,31.00
2023-05-22T00:31:10.509Z,31.98
2023-05-22T00:31:43.044Z,30.02
2023-05-22T00:32:15.546Z,28.98
2023-05-22T00:32:47.970Z,27.13
2023-05-22T00:33:21.481Z,28.38
2023-05-22T00:33:53.850Z,27.75
2023-05-22T00:34:26.410Z,26.98
2023-05-22T00:34:58.894Z,26.60
2023-05-22T00:35:31.285Z,24.98
2023-05-22T00:36:04.923Z,25.75
2023-05-22T00:36:37.396Z,28.83
2023-05-22T00:37:11.051Z,29.50
2023-05-22T00:37:45.258Z,27.15
2023-05-22T00:38:32.438Z,28.52
2023-05-22T00:39:05.099Z,51.28
2023-05-22T00:39:38.139Z,40.75
2023-05-22T00:40:11.215Z,37.38
2023-05-22T00:40:43.542Z,36.07
2023-05-22T00:41:16.137Z,33.45
2023-05-22T00:41:48.697Z,31.75
2023-05-22T00:42:21.368Z,29.55
2023-05-22T00:42:54.028Z,28.52
2023-05-22T00:43:27.379Z,25.92
2023-05-22T00:44:00.342Z,29.58
2023-05-22T00:44:32.828Z,32.63
2023-05-22T00:45:06.883Z,33.58
2023-05-22T00:45:39.401Z,35.10
2023-05-22T00:46:12.884Z,39.27
2023-05-22T00:46:45.648Z,32.05
2023-05-22T00:47:18.025Z,33.80
2023-05-22T00:47:51.021Z,33.58
2023-05-22T00:48:24.321Z,33.35
2023-05-22T00:48:59.015Z,36.40
2023-05-22T00:49:31.543Z,35.60
2023-05-22T00:50:05.875Z,33.03
2023-05-22T00:50:38.490Z,36.30
2023-05-22T00:51:12.592Z,37.35
2023-05-22T00:51:45.046Z,32.27
2023-05-22T00:52:18.062Z,32.08
2023-05-22T00:52:50.667Z,33.80
2023-05-22T00:53:24.445Z,34.05
2023-05-22T00:53:57.290Z,35.03
2023-05-22T00:54:30.868Z,33.47
2023-05-22T00:55:04.194Z,32.22
2023-05-22T00:55:36.936Z,34.28
2023-05-22T00:56:09.455Z,30.30
2023-05-22T00:56:42.365Z,32.25
2023-05-22T00:57:15.162Z,34.77
2023-05-22T00:57:48.109Z,33.13
2023-05-22T00:58:20.678Z,31.85
2023-05-22T00:58:53.193Z,33.20
2023-05-22T00:59:25.552Z,33.88
2023-05-22T00:59:57.896Z,30.70
2023-05-22T01:00:30.717Z,32.67
2023-05-22T01:01:03.142Z,35.17
2023-05-22T01:01:38.896Z,33.30
2023-05-22T01:02:11.850Z,36.05
2023-05-22T01:02:44.584Z,35.13
2023-05-22T01:03:17.865Z,32.60
2023-05-22T01:03:52.391Z,35.08
2023-05-22T01:04:25.627Z,32.53
2023-05-22T01:04:58.460Z,35.55
2023-05-22T01:05:31.001Z,32.67
2023-05-22T01:06:03.739Z,32.45
2023-05-22T01:06:36.138Z,33.72
2023-05-22T01:07:08.583Z,32.78
2023-05-22T01:07:41.123Z,31.30
2023-05-22T01:08:13.703Z,32.73
2023-05-22T01:08:46.283Z,31.02
2023-05-22T01:09:18.792Z,33.10
2023-05-22T01:09:53.068Z,29.30
2023-05-22T01:10:26.362Z,30.23
2023-05-22T01:11:08.511Z,30.85
2023-05-22T01:11:46.535Z,38.85
2023-05-22T01:12:31.702Z,41.80
2023-05-22T01:13:18.939Z,47.67
2023-05-22T01:13:55.263Z,65.97
2023-05-22T01:14:46.413Z,55.73
2023-05-22T01:15:26.713Z,61.90
2023-05-22T01:16:07.701Z,55.90
2023-05-22T01:16:46.954Z,53.72
2023-05-22T01:17:24.935Z,54.45
2023-05-22T01:18:06.243Z,51.38
2023-05-22T01:18:42.674Z,53.42
2023-05-22T01:19:24.139Z,48.60
2023-05-22T01:20:07.228Z,51.85
2023-05-22T01:20:51.491Z,52.80
2023-05-22T01:21:26.893Z,62.00
2023-05-22T01:22:25.307Z,58.90
2023-05-22T01:23:16.459Z,79.63
2023-05-22T01:23:54.364Z,73.28
2023-05-22T01:24:52.078Z,55.13
2023-05-22T01:25:43.338Z,64.50
2023-05-22T01:26:22.380Z,60.85
2023-05-22T01:26:54.734Z,50.95
2023-05-22T01:27:45.941Z,44.50
2023-05-22T01:28:31.095Z,50.60
2023-05-22T01:29:15.461Z,55.33
2023-05-22T01:30:03.097Z,53.08
2023-05-22T01:30:54.560Z,60.25
2023-05-22T01:31:27.762Z,58.72
2023-05-22T01:32:02.610Z,48.78
2023-05-22T01:32:35.187Z,42.38
2023-05-22T01:33:08.768Z,40.67
2023-05-22T01:33:47.031Z,39.92
2023-05-22T01:34:20.453Z,46.80
2023-05-22T01:34:54.357Z,44.08
2023-05-22T01:35:28.581Z,43.40
2023-05-22T01:36:01.589Z,42.13
2023-05-22T01:36:37.575Z,41.30
2023-05-22T01:37:10.221Z,43.40
2023-05-22T01:37:42.957Z,40.42
2023-05-22T01:38:16.055Z,41.28
2023-05-22T01:38:49.346Z,38.78
2023-05-22T01:39:22.132Z,37.13
2023-05-22T01:39:54.944Z,35.05
2023-05-22T01:40:27.492Z,33.70
2023-05-22T01:40:59.930Z,34.53
2023-05-22T01:41:35.291Z,36.20
2023-05-22T01:42:09.130Z,43.65
2023-05-22T01:42:42.022Z,44.53
2023-05-22T01:43:15.381Z,39.35
2023-05-22T01:43:47.945Z,41.10
2023-05-22T01:44:20.664Z,35.63
2023-05-22T01:44:54.209Z,36.92
2023-05-22T01:45:27.756Z,36.50
2023-05-22T01:46:00.408Z,35.03
2023-05-22T01:46:33.246Z,36.67
2023-05-22T01:47:06.174Z,33.17
2023-05-22T01:47:38.763Z,34.45
2023-05-22T01:48:12.303Z,33.97
2023-05-22T01:48:44.998Z,35.22
2023-05-22T01:49:19.813Z,38.40
2023-05-22T01:49:52.724Z,38.88
2023-05-22T01:50:26.755Z,35.47
2023-05-22T01:51:04.302Z,38.47
2023-05-22T01:51:45.890Z,43.47
2023-05-22T01:52:27.249Z,54.13
2023-05-22T01:53:08.021Z,60.83
2023-05-22T01:53:45.312Z,57.42
2023-05-22T01:54:20.534Z,53.30
2023-05-22T01:54:59.255Z,52.63
2023-05-22T01:55:40.794Z,57.28
2023-05-22T01:56:15.115Z,61.78
2023-05-22T01:56:55.978Z,52.95
2023-05-22T01:57:51.026Z,62.92
2023-05-22T01:58:26.469Z,80.22
2023-05-22T01:59:04.634Z,66.10
2023-05-22T01:59:45.687Z,65.25
2023-05-22T02:00:19.860Z,64.72
2023-05-22T02:00:56.972Z,65.50
2023-05-22T02:01:49.673Z,82.13
2023-05-22T02:02:43.083Z,91.28
2023-05-22T02:03:35.682Z,87.43
2023-05-22T02:04:27.612Z,85.75
2023-05-22T02:05:19.483Z,88.65
2023-05-22T02:05:53.461Z,72.40
2023-05-22T02:06:27.940Z,62.07
2023-05-22T02:07:01.836Z,59.75
2023-05-22T02:07:36.955Z,57.50
2023-05-22T02:08:11.052Z,58.95
2023-05-22T02:08:46.961Z,55.45
2023-05-22T02:09:19.789Z,50.72
2023-05-22T02:09:52.766Z,49.70
2023-05-22T02:10:26.322Z,50.72
2023-05-22T02:11:00.288Z,54.05
2023-05-22T02:11:33.108Z,56.38
2023-05-22T02:12:05.957Z,53.30
2023-05-22T02:12:38.856Z,56.33
2023-05-22T02:13:11.424Z,56.95
2023-05-22T02:13:43.902Z,52.38
2023-05-22T02:14:18.137Z,52.80
2023-05-22T02:14:50.704Z,53.53
2023-05-22T02:15:23.026Z,56.72
2023-05-22T02:15:56.339Z,56.60
2023-05-22T02:16:30.477Z,54.65
2023-05-22T02:17:03.657Z,54.83
2023-05-22T02:17:42.942Z,56.17
2023-05-22T02:18:15.562Z,60.42
2023-05-22T02:18:49.018Z,57.65
2023-05-22T02:19:21.840Z,55.75
2023-05-22T02:19:56.003Z,56.92
2023-05-22T02:20:28.542Z,56.92
2023-05-22T02:21:00.921Z,56.35
2023-05-22T02:21:36.758Z,52.92
2023-05-22T02:22:11.991Z,56.33
2023-05-22T02:22:45.556Z,61.15
2023-05-22T02:23:17.913Z,57.30
2023-05-22T02:23:50.275Z,57.15
2023-05-22T02:24:23.876Z,54.22
2023-05-22T02:24:57.177Z,54.28
2023-05-22T02:25:29.652Z,53.80
2023-05-22T02:26:02.013Z,51.53
2023-05-22T02:26:34.402Z,38.60
2023-05-22T02:27:07.837Z,54.47
2023-05-22T02:27:43.676Z,53.38
2023-05-22T02:28:16.511Z,50.50
2023-05-22T02:28:51.182Z,55.10
2023-05-22T02:29:23.837Z,53.72
2023-05-22T02:29:56.396Z,55.13
2023-05-22T02:30:28.819Z,36.03
2023-05-22T02:31:04.036Z,49.95
2023-05-22T02:31:36.513Z,56.75
2023-05-22T02:32:09.401Z,56.35
2023-05-22T02:32:42.341Z,55.95
2023-05-22T02:33:18.297Z,56.75
2023-05-22T02:33:50.694Z,61.90
2023-05-22T02:34:23.058Z,61.10
2023-05-22T02:34:55.454Z,59.10
2023-05-22T02:35:28.507Z,63.90
2023-05-22T02:36:01.072Z,63.97
2023-05-22T02:36:33.552Z,63.45
2023-05-22T02:37:06.258Z,60.70
2023-05-22T02:37:39.082Z,62.67
2023-05-22T02:38:12.379Z,59.83
2023-05-22T02:38:44.822Z,61.90
2023-05-22T02:39:20.008Z,63.97
2023-05-22T02:39:52.828Z,72.70
2023-05-22T02:40:25.191Z,71.85
2023-05-22T02:40:57.916Z,66.22
2023-05-22T02:41:30.566Z,66.40
2023-05-22T02:42:03.235Z,65.22
2023-05-22T02:42:35.763Z,63.22
2023-05-22T02:43:08.164Z,67.10
2023-05-22T02:43:41.764Z,63.65
2023-05-22T02:44:14.089Z,68.07
2023-05-22T02:44:46.453Z,64.32
2023-05-22T02:45:18.915Z,64.93
2023-05-22T02:45:51.645Z,66.05
2023-05-22T02:46:24.160Z,65.88
2023-05-22T02:46:56.545Z,65.43
2023-05-22T02:47:29.483Z,63.22
2023-05-22T02:48:03.933Z,63.22
2023-05-22T02:48:37.680Z,68.25
2023-05-22T02:49:10.084Z,68.22
2023-05-22T02:49:43.024Z,64.90
2023-05-22T02:50:15.875Z,66.00
2023-05-22T02:50:49.172Z,62.97
2023-05-22T02:51:21.575Z,65.43
2023-05-22T02:51:54.382Z,62.22
2023-05-22T02:52:28.603Z,61.13
2023-05-22T02:53:01.342Z,61.88
2023-05-22T02:53:40.353Z,61.72
2023-05-22T02:54:12.736Z,76.25
2023-05-22T02:54:45.141Z,74.65
2023-05-22T02:55:17.545Z,69.78
2023-05-22T02:55:49.921Z,66.05
2023-05-22T02:56:22.329Z,66.30
2023-05-22T02:56:54.752Z,63.78
2023-05-22T02:57:27.328Z,61.08
2023-05-22T02:57:59.834Z,59.83
2023-05-22T02:58:32.335Z,61.25
2023-05-22T02:59:05.120Z,58.30
2023-05-22T02:59:37.775Z,62.20
2023-05-22T03:00:11.819Z,60.17
2023-05-22T03:00:44.907Z,63.40
2023-05-22T03:01:17.317Z,64.75
2023-05-22T03:01:49.776Z,71.90
2023-05-22T03:02:22.110Z,70.25
2023-05-22T03:02:54.599Z,66.22
2023-05-22T03:03:27.157Z,65.85
2023-05-22T03:03:59.787Z,68.78
2023-05-22T03:04:33.159Z,56.10
2023-05-22T03:05:06.376Z,68.07
2023-05-22T03:05:38.758Z,63.28
2023-05-22T03:06:13.298Z,68.45
2023-05-22T03:06:46.559Z,57.47
2023-05-22T03:07:20.502Z,51.90
2023-05-22T03:07:53.143Z,79.95
2023-05-22T03:08:28.540Z,75.05
2023-05-22T03:09:01.389Z,79.63
2023-05-22T03:09:33.797Z,75.75
2023-05-22T03:10:07.285Z,74.07
2023-05-22T03:10:39.885Z,70.28
2023-05-22T03:11:13.144Z,70.95
2023-05-22T03:11:45.816Z,70.40
2023-05-22T03:12:18.226Z,68.88
2023-05-22T03:12:52.206Z,67.63
2023-05-22T03:13:25.228Z,70.55
2023-05-22T03:13:57.939Z,67.10
2023-05-22T03:14:30.462Z,69.32
2023-05-22T03:15:03.780Z,67.00
2023-05-22T03:15:37.351Z,68.78
2023-05-22T03:16:17.169Z,77.65
2023-05-22T03:16:52.500Z,77.90
2023-05-22T03:17:25.045Z,73.38
2023-05-22T03:17:57.683Z,72.85
2023-05-22T03:18:30.304Z,72.57
2023-05-22T03:19:09.636Z,69.20
2023-05-22T03:19:42.210Z,80.47
2023-05-22T03:20:18.494Z,76.32
2023-05-22T03:20:51.426Z,78.25
2023-05-22T03:21:24.260Z,71.10
2023-05-22T03:21:57.774Z,76.20
2023-05-22T03:22:30.092Z,72.90
2023-05-22T03:23:02.556Z,72.13
2023-05-22T03:23:35.123Z,64.32
2023-05-22T03:24:07.776Z,65.53
2023-05-22T03:24:40.199Z,61.92
2023-05-22T03:25:13.364Z,65.32
2023-05-22T03:25:46.435Z,65.55
2023-05-22T03:26:18.948Z,64.63
2023-05-22T03:26:51.767Z,64.22
2023-05-22T03:27:30.986Z,72.03
2023-05-22T03:28:03.415Z,68.68
2023-05-22T03:28:39.852Z,74.18
2023-05-22T03:29:12.513Z,68.47
2023-05-22T03:29:46.990Z,71.63
2023-05-22T03:30:20.457Z,66.35
2023-05-22T03:31:03.936Z,80.57
2023-05-22T03:31:44.347Z,85.40
2023-05-22T03:32:19.598Z,82.10
2023-05-22T03:32:53.500Z,76.43
2023-05-22T03:33:27.049Z,74.80
2023-05-22T03:34:00.288Z,72.70
2023-05-22T03:34:33.094Z,71.47
2023-05-22T03:35:06.598Z,74.78
2023-05-22T03:35:39.526Z,74.87
2023-05-22T03:36:12.304Z,73.97
2023-05-22T03:36:45.386Z,72.75
2023-05-22T03:37:19.830Z,79.78
2023-05-22T03:37:52.285Z,77.25
2023-05-22T03:38:25.017Z,78.25
2023-05-22T03:38:57.941Z,79.80
2023-05-22T03:39:30.316Z,81.20
2023-05-22T03:40:07.926Z,85.25
2023-05-22T03:40:40.758Z,81.03
2023-05-22T03:41:14.421Z,79.27
2023-05-22T03:41:46.922Z,75.35
2023-05-22T03:42:19.363Z,75.47
2023-05-22T03:42:52.432Z,72.00
2023-05-22T03:43:24.774Z,76.43
2023-05-22T03:43:58.021Z,74.63
2023-05-22T03:44:31.503Z,74.32
2023-05-22T03:45:04.390Z,77.75
2023-05-22T03:45:37.387Z,74.40
2023-05-22T03:46:13.122Z,76.88
2023-05-22T03:46:46.263Z,79.87
2023-05-22T03:47:18.641Z,79.50
2023-05-22T03:47:51.903Z,80.28
2023-05-22T03:48:24.358Z,79.40
2023-05-22T03:48:57.247Z,75.90
2023-05-22T03:49:30.734Z,76.75
2023-05-22T03:50:03.395Z,76.82
2023-05-22T03:50:35.942Z,80.15
2023-05-22T03:51:08.304Z,78.03
2023-05-22T03:51:40.801Z,74.75
2023-05-22T03:52:13.300Z,76.83
2023-05-22T03:52:45.897Z,78.68
2023-05-22T03:53:18.251Z,81.80
2023-05-22T03:53:50.804Z,84.15
2023-05-22T03:54:23.326Z,81.47
2023-05-22T03:54:55.841Z,81.75
2023-05-22T03:55:28.259Z,79.47
2023-05-22T03:56:00.734Z,77.95
2023-05-22T03:56:33.130Z,79.72
2023-05-22T03:57:05.838Z,80.50
2023-05-22T03:57:38.211Z,84.43
2023-05-22T03:58:11.326Z,77.07
2023-05-22T03:58:44.194Z,79.68
2023-05-22T03:59:16.726Z,80.25
2023-05-22T03:59:49.092Z,81.05
2023-05-22T04:00:22.050Z,80.80
2023-05-22T04:00:55.741Z,82.20
2023-05-22T04:01:28.251Z,81.95
2023-05-22T04:02:01.975Z,86.22
2023-05-22T04:02:34.547Z,82.93
2023-05-22T04:03:07.633Z,82.70
2023-05-22T04:03:40.198Z,82.43
2023-05-22T04:04:12.813Z,82.47
2023-05-22T04:04:46.568Z,80.55
2023-05-22T04:05:19.111Z,82.97
2023-05-22T04:05:52.033Z,83.47
2023-05-22T04:06:26.191Z,86.40
2023-05-22T04:07:00.505Z,82.90
2023-05-22T04:07:32.889Z,88.43
2023-05-22T04:08:05.438Z,87.30
2023-05-22T04:08:37.884Z,89.53
2023-05-22T04:09:12.024Z,87.53
2023-05-22T04:09:44.413Z,94.25
2023-05-22T04:10:17.006Z,92.50
2023-05-22T04:10:49.454Z,91.70
2023-05-22T04:11:22.378Z,87.18
2023-05-22T04:11:56.221Z,89.38
2023-05-22T04:12:28.821Z,94.57
2023-05-22T04:13:01.633Z,101.70
2023-05-22T04:13:34.171Z,102.20
2023-05-22T04:14:06.846Z,104.87
2023-05-22T04:14:39.319Z,99.03
2023-05-22T04:15:12.029Z,102.05
2023-05-22T04:15:47.073Z,108.85
2023-05-22T04:16:19.695Z,112.13
2023-05-22T04:16:52.195Z,108.50
2023-05-22T04:17:26.323Z,112.40
2023-05-22T04:17:58.710Z,116.05
2023-05-22T04:18:33.680Z,121.00
2023-05-22T04:19:06.261Z,126.82
2023-05-22T04:19:38.869Z,129.70
2023-05-22T04:20:12.277Z,128.13
2023-05-22T04:20:44.626Z,144.02
2023-05-22T04:21:17.746Z,175.27
2023-05-22T04:21:51.503Z,182.70
2023-05-22T04:22:24.062Z,764.70
2023-05-22T04:22:57.160Z,135.43
2023-05-22T04:23:29.610Z,17.92
2023-05-22T04:24:02.875Z,16.05
2023-05-22T04:24:39.983Z,16.65
2023-05-22T04:25:12.313Z,18.87
2023-05-22T04:25:45.126Z,16.95
2023-05-22T04:26:18.392Z,16.90
2023-05-22T04:26:51.185Z,19.50
2023-05-22T04:27:23.765Z,18.42
2023-05-22T04:27:56.333Z,16.35
2023-05-22T04:28:30.579Z,16.63
2023-05-22T04:29:04.025Z,17.23
2023-05-22T04:29:41.832Z,16.63
2023-05-22T04:30:17.798Z,18.60
2023-05-22T04:30:50.398Z,16.13
2023-05-22T04:31:24.164Z,17.75
2023-05-22T04:31:56.938Z,14.90
2023-05-22T04:32:29.976Z,16.77
2023-05-22T04:33:02.762Z,15.95
2023-05-22T04:33:36.807Z,15.75
2023-05-22T04:34:13.371Z,17.85
2023-05-22T04:34:47.607Z,16.92
2023-05-22T04:35:23.035Z,15.70
2023-05-22T04:35:55.540Z,17.95
2023-05-22T04:36:28.146Z,15.23
2023-05-22T04:37:00.647Z,16.73
2023-05-22T04:37:33.137Z,16.30
2023-05-22T04:38:06.461Z,15.77
2023-05-22T04:38:38.821Z,15.25
2023-05-22T04:39:11.577Z,16.58
2023-05-22T04:39:44.472Z,15.80
2023-05-22T04:40:17.032Z,16.15
2023-05-22T04:40:50.538Z,16.35
2023-05-22T04:41:26.754Z,19.02
2023-05-22T04:42:06.016Z,16.57
2023-05-22T04:42:39.319Z,16.95
2023-05-22T04:43:12.920Z,15.00
2023-05-22T04:43:45.383Z,17.50
2023-05-22T04:44:18.156Z,15.38
2023-05-22T04:44:53.598Z,15.30
2023-05-22T04:45:26.903Z,15.50
2023-05-22T04:45:59.427Z,15.77
2023-05-22T04:46:31.933Z,16.35
2023-05-22T04:47:07.444Z,16.38
2023-05-22T04:47:41.839Z,15.37
2023-05-22T04:48:16.015Z,15.60
2023-05-22T04:48:48.600Z,17.85
2023-05-22T04:49:21.609Z,13.93
2023-05-22T04:49:53.963Z,14.52
2023-05-22T04:50:26.530Z,17.10
2023-05-22T04:50:58.988Z,15.85
2023-05-22T04:51:33.175Z,14.20
2023-05-22T04:52:23.939Z,14.65
2023-05-22T04:53:14.859Z,16.17
2023-05-22T04:54:05.995Z,16.03
2023-05-22T04:54:58.724Z,14.95
2023-05-22T04:55:51.737Z,17.20
2023-05-22T04:56:42.423Z,20.20
2023-05-22T04:57:33.223Z,16.38
2023-05-22T04:58:24.308Z,14.07
2023-05-22T04:59:16.602Z,15.40
2023-05-22T04:59:49.262Z,14.65
2023-05-22T05:00:26.686Z,15.10
2023-05-22T05:00:59.452Z,16.73
2023-05-22T05:01:33.670Z,15.00
2023-05-22T05:02:06.303Z,15.18
2023-05-22T05:02:38.763Z,16.10
2023-05-22T05:03:11.975Z,16.15
2023-05-22T05:03:45.197Z,13.68
2023-05-22T05:04:19.935Z,16.13
2023-05-22T05:04:53.400Z,15.68
2023-05-22T05:05:26.266Z,16.73
2023-05-22T05:06:01.106Z,15.85
2023-05-22T05:06:35.238Z,14.52
2023-05-22T05:07:09.223Z,17.30
2023-05-22T05:07:43.757Z,14.40
2023-05-22T05:08:16.166Z,15.02
2023-05-22T05:08:49.958Z,16.05
2023-05-22T05:09:22.379Z,15.70
2023-05-22T05:09:55.138Z,14.05
2023-05-22T05:10:27.491Z,15.73
2023-05-22T05:11:00.070Z,17.70
2023-05-22T05:11:32.876Z,14.70
2023-05-22T05:12:05.504Z,15.18
2023-05-22T05:12:37.978Z,13.60
2023-05-22T05:13:10.939Z,15.48
2023-05-22T05:13:44.882Z,13.73
2023-05-22T05:14:17.604Z,15.43
2023-05-22T05:14:50.185Z,15.05
2023-05-22T05:15:24.057Z,18.85
2023-05-22T05:15:58.023Z,16.92
2023-05-22T05:16:30.438Z,15.55
2023-05-22T05:17:02.927Z,16.00
2023-05-22T05:17:35.835Z,16.02
2023-05-22T05:18:08.398Z,17.17
2023-05-22T05:18:40.804Z,18.92
2023-05-22T05:19:13.523Z,17.23
2023-05-22T05:19:46.067Z,15.90
2023-05-22T05:20:18.406Z,15.25
2023-05-22T05:20:50.772Z,15.25
2023-05-22T05:21:23.446Z,15.15
2023-05-22T05:21:55.969Z,15.63
2023-05-22T05:22:29.356Z,16.30
2023-05-22T05:23:02.182Z,15.80
2023-05-22T05:23:34.578Z,15.60
2023-05-22T05:24:07.013Z,14.80
2023-05-22T05:24:39.674Z,16.48
2023-05-22T05:25:12.725Z,18.48
2023-05-22T05:25:45.301Z,16.90
2023-05-22T05:26:17.798Z,16.38
2023-05-22T05:26:51.133Z,14.05
2023-05-22T05:27:25.037Z,15.40
2023-05-22T05:27:58.572Z,17.90
2023-05-22T05:28:31.130Z,13.73
2023-05-22T05:29:03.539Z,14.57
2023-05-22T05:29:46.921Z,16.23
2023-05-22T05:30:32.363Z,15.45
2023-05-22T05:31:14.843Z,16.48
2023-05-22T05:32:14.197Z,15.15
2023-05-22T05:32:57.346Z,15.18
2023-05-22T05:33:37.441Z,14.90
2023-05-22T05:34:33.105Z,14.52
2023-05-22T05:35:08.793Z,18.00
2023-05-22T05:35:52.784Z,14.00
2023-05-22T05:36:29.445Z,14.97
2023-05-22T05:37:03.183Z,13.63
2023-05-22T05:37:36.195Z,14.10
2023-05-22T05:38:10.574Z,14.90
2023-05-22T05:38:45.136Z,15.32
2023-05-22T05:39:18.726Z,15.73
2023-05-22T05:39:51.251Z,12.93
2023-05-22T05:40:23.601Z,15.93
2023-05-22T05:40:57.536Z,14.52
2023-05-22T05:41:29.863Z,14.88
2023-05-22T05:42:07.923Z,14.47
2023-05-22T05:42:40.287Z,15.93
2023-05-22T05:43:15.902Z,15.15
2023-05-22T05:43:49.277Z,15.60
2023-05-22T05:44:21.985Z,14.27
2023-05-22T05:44:54.579Z,14.68
2023-05-22T05:45:30.198Z,15.27
2023-05-22T05:46:03.104Z,13.85
2023-05-22T05:46:36.138Z,14.00
2023-05-22T05:47:09.060Z,13.85
2023-05-22T05:47:41.673Z,15.80
2023-05-22T05:48:14.240Z,13.77
2023-05-22T05:48:50.380Z,14.70
2023-05-22T05:49:22.816Z,18.00
2023-05-22T05:49:56.342Z,16.17
2023-05-22T05:50:28.738Z,15.23
2023-05-22T05:51:01.519Z,16.23
2023-05-22T05:51:38.413Z,14.98
2023-05-22T05:52:11.210Z,17.45
2023-05-22T05:52:43.960Z,17.13
2023-05-22T05:53:22.161Z,14.67
2023-05-22T05:53:59.907Z,14.80
2023-05-22T05:54:32.308Z,14.65
2023-05-22T05:55:09.911Z,16.10
2023-05-22T05:55:42.624Z,15.30
2023-05-22T05:56:15.533Z,15.90
2023-05-22T05:56:48.310Z,13.73
2023-05-22T05:57:20.794Z,14.75
2023-05-22T05:57:54.059Z,12.75
2023-05-22T05:58:33.693Z,18.75
2023-05-22T05:59:35.325Z,14.50
2023-05-22T06:00:26.617Z,14.27
2023-05-22T06:01:00.197Z,15.52
2023-05-22T06:01:34.026Z,16.23
2023-05-22T06:02:06.795Z,14.82
2023-05-22T06:02:40.039Z,16.08
2023-05-22T06:03:18.181Z,14.07
2023-05-22T06:04:15.206Z,13.93
2023-05-22T06:04:49.922Z,15.43
2023-05-22T06:05:24.243Z,15.13
2023-05-22T06:06:03.668Z,16.63
2023-05-22T06:07:02.243Z,18.42
2023-05-22T06:07:43.716Z,16.20
2023-05-22T06:08:16.925Z,16.73
2023-05-22T06:08:49.882Z,14.85
2023-05-22T06:09:22.653Z,16.77
2023-05-22T06:10:13.846Z,15.10
2023-05-22T06:10:59.786Z,14.38
2023-05-22T06:11:42.928Z,14.95
2023-05-22T06:12:15.665Z,16.10
2023-05-22T06:12:50.376Z,12.70
2023-05-22T06:13:22.876Z,14.25
2023-05-22T06:13:56.061Z,15.55
2023-05-22T06:14:28.562Z,17.23
2023-05-22T06:15:01.118Z,13.23
2023-05-22T06:15:33.636Z,15.43
2023-05-22T06:16:06.901Z,15.13
2023-05-22T06:16:40.895Z,14.75
2023-05-22T06:17:13.366Z,16.88
2023-05-22T06:17:47.774Z,13.57
2023-05-22T06:18:20.400Z,15.00
2023-05-22T06:18:53.044Z,16.10
2023-05-22T06:19:25.681Z,15.85
2023-05-22T06:19:58.360Z,14.05
2023-05-22T06:20:30.952Z,15.43
2023-05-22T06:21:03.484Z,14.10
2023-05-22T06:21:36.694Z,16.55
2023-05-22T06:22:09.429Z,14.82
2023-05-22T06:22:43.983Z,13.95
2023-05-22T06:23:16.570Z,15.30
2023-05-22T06:23:49.945Z,16.37
2023-05-22T06:24:22.475Z,14.45
2023-05-22T06:24:56.221Z,16.40
2023-05-22T06:25:31.280Z,16.10
2023-05-22T06:26:05.325Z,13.13
2023-05-22T06:26:37.885Z,17.02
2023-05-22T06:27:10.263Z,15.48
2023-05-22T06:27:42.966Z,15.50
2023-05-22T06:28:15.373Z,14.75
2023-05-22T06:28:47.788Z,16.35
2023-05-22T06:29:20.122Z,13.53
2023-05-22T06:29:54.054Z,14.13
2023-05-22T06:30:38.971Z,14.98
2023-05-22T06:31:14.611Z,14.77
2023-05-22T06:31:50.156Z,15.13
2023-05-22T06:32:24.900Z,16.83
2023-05-22T06:32:58.989Z,15.05
2023-05-22T06:33:32.434Z,15.98
2023-05-22T06:34:05.020Z,14.85
2023-05-22T06:34:37.531Z,14.00
2023-05-22T06:35:10.603Z,15.27
2023-05-22T06:35:44.373Z,14.98
2023-05-22T06:36:17.693Z,12.90
2023-05-22T06:36:52.904Z,15.88
2023-05-22T06:37:31.483Z,15.38
2023-05-22T06:38:04.187Z,17.52
2023-05-22T06:38:38.240Z,15.40
2023-05-22T06:39:12.899Z,15.70
2023-05-22T06:40:08.789Z,15.13
2023-05-22T06:41:00.187Z,14.75
2023-05-22T06:41:33.872Z,14.57
2023-05-22T06:42:06.733Z,14.52
2023-05-22T06:43:02.055Z,15.57
2023-05-22T06:43:34.643Z,14.30
2023-05-22T06:44:13.565Z,14.52
2023-05-22T06:44:46.033Z,14.32
2023-05-22T06:45:20.087Z,13.88
2023-05-22T06:46:07.484Z,14.55
2023-05-22T06:46:49.322Z,15.70
2023-05-22T06:47:27.959Z,15.30
2023-05-22T06:48:00.360Z,16.43
2023-05-22T06:48:36.307Z,17.17
2023-05-22T06:49:16.483Z,17.70
2023-05-22T06:49:52.011Z,14.75
2023-05-22T06:50:25.021Z,14.18
2023-05-22T06:50:57.678Z,12.40
2023-05-22T06:51:32.039Z,14.90
2023-05-22T06:52:12.632Z,16.05
2023-05-22T06:52:45.358Z,15.30
2023-05-22T06:53:18.128Z,15.88
2023-05-22T06:53:50.426Z,15.07
2023-05-22T06:54:28.940Z,15.88
2023-05-22T06:55:05.867Z,13.70
2023-05-22T06:55:46.608Z,18.27
2023-05-22T06:56:27.277Z,15.18
2023-05-22T06:57:05.405Z,12.88
2023-05-22T06:57:37.752Z,15.55
2023-05-22T06:58:10.595Z,16.35
2023-05-22T06:58:43.025Z,15.02
2023-05-22T06:59:16.071Z,14.27
2023-05-22T07:00:20.882Z,13.77
2023-05-22T07:01:14.447Z,12.98
2023-05-22T07:01:54.543Z,15.45
2023-05-22T07:02:36.839Z,14.75
2023-05-22T07:03:25.735Z,16.05
2023-05-22T07:04:23.854Z,15.07
2023-05-22T07:05:05.554Z,16.35
2023-05-22T07:05:52.410Z,14.70
2023-05-22T07:06:24.979Z,14.85
2023-05-22T07:06:57.502Z,13.85
2023-05-22T07:07:30.192Z,13.33
2023-05-22T07:08:03.140Z,13.35
2023-05-22T07:08:36.398Z,13.90
2023-05-22T07:09:09.269Z,15.65
2023-05-22T07:09:41.640Z,14.52
2023-05-22T07:10:14.545Z,13.90
2023-05-22T07:10:46.935Z,13.65
2023-05-22T07:11:20.040Z,15.63
2023-05-22T07:11:52.362Z,16.52
2023-05-22T07:12:28.110Z,15.02
2023-05-22T07:13:01.232Z,13.17
2023-05-22T07:13:34.437Z,14.10
2023-05-22T07:14:08.091Z,14.00
2023-05-22T07:14:40.948Z,13.68
2023-05-22T07:15:15.073Z,16.88
2023-05-22T07:15:53.515Z,13.80
2023-05-22T07:16:26.293Z,14.10
2023-05-22T07:16:59.231Z,14.55
2023-05-22T07:17:36.576Z,16.98
2023-05-22T07:18:10.520Z,15.43
2023-05-22T07:18:46.375Z,16.67
2023-05-22T07:19:19.600Z,17.17
2023-05-22T07:19:52.119Z,14.02
2023-05-22T07:20:26.541Z,15.05
2023-05-22T07:21:14.419Z,15.90
2023-05-22T07:21:48.032Z,14.93
2023-05-22T07:22:23.762Z,13.15
2023-05-22T07:22:56.405Z,12.95
2023-05-22T07:23:28.924Z,13.27
2023-05-22T07:24:03.642Z,16.60
2023-05-22T07:24:36.021Z,16.60
2023-05-22T07:25:09.551Z,14.13
2023-05-22T07:25:42.885Z,13.02
2023-05-22T07:26:15.407Z,13.63
2023-05-22T07:26:54.712Z,13.30
2023-05-22T07:27:27.037Z,12.25
2023-05-22T07:28:02.294Z,15.95
2023-05-22T07:28:35.324Z,12.20
2023-05-22T07:29:14.407Z,14.02
2023-05-22T07:29:47.177Z,13.98